Kuala Dungun, Malaysia
Current Conditions -  °F | °C
As of 12:00 PM on Monday 20 Oct 2014 (Local Time) from WMKN Reporting Station
Broken Clouds Broken Clouds  
Wind Chill: 88°   Ceiling: 28000
Heat Index: 105°   Visibility: 6mi
Dew Point: 81°   Wind: 5mph
Humidity: 79%   Direction: 90°E
Pressure: 29.85"   Gusts: NA
Location:  4.78°N, 103.43°E
Report Text: WMKN 200400Z 09004KT 9999 SCT018 BKN280 31/27 Q1011
Loading
Personal Weather Stations






























Interactive Weather Map
Tropical Storm Tracking
New forecast layout! Learn more

10-Day Weather Forecast

Advertisements
Track Severe Weather on mobile